Barter Island Lrrs Airport
PABA : rendu visible

Aérodrome :











RETROUVEZ-NOUS SUR...

 
LOGIN :

S'inscrire | Disclaimer

   EN    FR    IT 

 









Légende :    VFR   VFR Marginal   IFR   IFR Intensif   IFR Très Intensif
Visi : 
Plafond : 
>= 8 km
>= 3000ft
5 à 8 km
1000 à 3000 ft
1500m à 5 km
500 à 1000 ft
800 à 1500m
200 à 500 ft
< 800m
< 200 ft
Symboles :   Orages  Brouillard  Fortes neiges  Fortes précipitations  Vent > 20 kt






- Altitude de l'aérodrome : 2 ft
- Code IATA : BTI


PABA - Barter Island Lrrs

DERNIER METAR :
  • 250852Z AUTO 06013KT 10SM CLR 00/M02 A2962 RMK AO2 SLP036 T00001017 400280000 53006 FZRANO TSNO

METARs EXPIRÉS :
  • 250752Z AUTO 06014KT 10SM CLR 01/M01 A2961 RMK AO2 SLP033 T00061011 FZRANO TSNO
  • 250652Z AUTO 06014KT 10SM CLR 01/M01 A2960 RMK AO2 SLP030 T00061011 FZRANO TSNO

Prévision TAF périmée.
FIR PAZA / Amérique du Nord



MET'MAP, la Météo Aéronautique d'un coup d'oeil ! - Copyright ORBIFLY Décembre 2007 - Disclaimer

ORBIFLY MET'MAP TEAM :

Programmation & Développement : Alexandra Zaïnal
Sur une idée originale de : Baudouin d'Aumeries
Assistance à la programmation : Marc-Olivier Méhu
Soutien technique & logistique : Manuel Goepfert

Contact : metmap@orbifly.com




SOURCES & CREDITS :

   NOAA       Earth
Advisory